Terminal Aerodrome Forecast
Issued by NWS

Current Version | Previous Version | Text Only | Print | Product List | Glossary On
Versions: 1 2 3 4 5 6 7 8 9 10 11 12 13 14 15 16 17 18 19 20 21
000
FTUS43 KGRR 172347
TAFJXN
TAF
KJXN 172347Z 1800/1824 22011G19KT P6SM VCSH BKN060
     FM180900 24010KT P6SM VCSH BKN025
     FM181100 26010KT P6SM VCSH BKN015
     FM181700 27012G20KT P6SM BKN030
     FM182000 28012G20KT P6SM BKN040=

USA.gov is the U.S. government's official web portal to all federal, state and local government web resources and services.